PKC102 UHPP-UHPK
Flight info
| Callsign | PKC102 |
|---|---|
| Flight time | 0h 55m |
| Altitude | 23000 |
| Route | TUPAN4M TUPAN B244 TK |
| Aircraft | YK40/M-SDFIRWY/H |
Departure
| Time | 2026-04-28 12:03 |
|---|---|
| Airport | Yelizovo Airport (UHPP) |
Arrival
| Time | 2026-04-28 12:58 |
|---|---|
| Airport | Ust'-Kamchatsk Airport (UHPK) |
| Time | Latitude | Longitude | Altitude | Speed | Heading |
|---|---|---|---|---|---|
| 2026-04-28 11:46 | 53.17092 | 158.42784 | 87 ft | 0 kts | 59° |
| 2026-04-28 11:47 | 53.17099 | 158.42806 | 87 ft | 3 kts | 64° |
| 2026-04-28 11:48 | 53.17101 | 158.42812 | 87 ft | 0 kts | 65° |
| 2026-04-28 11:48 | 53.17101 | 158.42813 | 87 ft | 0 kts | 65° |
| 2026-04-28 11:58 | 53.17102 | 158.42818 | 87 ft | 2 kts | 66° |
| 2026-04-28 11:58 | 53.17067 | 158.42874 | 89 ft | 15 kts | 129° |
| 2026-04-28 11:58 | 53.17112 | 158.43048 | 87 ft | 17 kts | 60° |
| 2026-04-28 11:58 | 53.17165 | 158.43208 | 88 ft | 13 kts | 60° |
| 2026-04-28 11:59 | 53.17208 | 158.43326 | 89 ft | 9 kts | 62° |
| 2026-04-28 11:59 | 53.17234 | 158.43404 | 90 ft | 5 kts | 60° |
| 2026-04-28 11:59 | 53.17245 | 158.43436 | 90 ft | 0 kts | 59° |
| 2026-04-28 11:59 | 53.17267 | 158.43495 | 91 ft | 18 kts | 59° |
| 2026-04-28 12:00 | 53.17361 | 158.43764 | 95 ft | 27 kts | 59° |
| 2026-04-28 12:00 | 53.17439 | 158.43986 | 100 ft | 18 kts | 59° |
| 2026-04-28 12:00 | 53.17485 | 158.44150 | 103 ft | 12 kts | 67° |
| 2026-04-28 12:00 | 53.17513 | 158.44261 | 104 ft | 8 kts | 66° |
| 2026-04-28 12:01 | 53.17533 | 158.44341 | 105 ft | 7 kts | 67° |
| 2026-04-28 12:01 | 53.17563 | 158.44472 | 107 ft | 17 kts | 70° |
| 2026-04-28 12:01 | 53.17596 | 158.44612 | 109 ft | 5 kts | 94° |
| 2026-04-28 12:01 | 53.17586 | 158.44624 | 109 ft | 0 kts | 159° |
| 2026-04-28 12:02 | 53.17513 | 158.44673 | 110 ft | 36 kts | 158° |
| 2026-04-28 12:02 | 53.17084 | 158.44963 | 117 ft | 93 kts | 156° |
| 2026-04-28 12:02 | 53.16364 | 158.45445 | 235 ft | 123 kts | 159° |
| 2026-04-28 12:02 | 53.15535 | 158.45984 | 577 ft | 134 kts | 159° |
| 2026-04-28 12:03 | 53.14637 | 158.46526 | 973 ft | 143 kts | 160° |
| 2026-04-28 12:03 | 53.13658 | 158.47141 | 1348 ft | 162 kts | 158° |
| 2026-04-28 12:03 | 53.12597 | 158.47794 | 1981 ft | 164 kts | 157° |
| 2026-04-28 12:03 | 53.11505 | 158.48579 | 2355 ft | 182 kts | 147° |
| 2026-04-28 12:04 | 53.10447 | 158.49927 | 2702 ft | 200 kts | 136° |
| 2026-04-28 12:04 | 53.09534 | 158.51538 | 3605 ft | 187 kts | 125° |
| 2026-04-28 12:04 | 53.09066 | 158.53555 | 4090 ft | 194 kts | 101° |
| 2026-04-28 12:04 | 53.08816 | 158.55699 | 4901 ft | 186 kts | 96° |
| 2026-04-28 12:05 | 53.08710 | 158.57744 | 5755 ft | 176 kts | 92° |
| 2026-04-28 12:05 | 53.08664 | 158.59782 | 6217 ft | 188 kts | 89° |
| 2026-04-28 12:05 | 53.08662 | 158.62102 | 6426 ft | 210 kts | 89° |
| 2026-04-28 12:05 | 53.08688 | 158.64549 | 6874 ft | 217 kts | 82° |
| 2026-04-28 12:06 | 53.09019 | 158.66978 | 7419 ft | 217 kts | 70° |
| 2026-04-28 12:06 | 53.09685 | 158.69215 | 7941 ft | 219 kts | 57° |
| 2026-04-28 12:06 | 53.10657 | 158.71156 | 8442 ft | 220 kts | 43° |
| 2026-04-28 12:06 | 53.11883 | 158.72713 | 8947 ft | 222 kts | 33° |
| 2026-04-28 12:07 | 53.13162 | 158.74158 | 9421 ft | 225 kts | 33° |
| 2026-04-28 12:07 | 53.14458 | 158.75609 | 9883 ft | 228 kts | 33° |
| 2026-04-28 12:07 | 53.15774 | 158.77089 | 10345 ft | 230 kts | 33° |
| 2026-04-28 12:07 | 53.17079 | 158.78615 | 10815 ft | 233 kts | 35° |
| 2026-04-28 12:08 | 53.18330 | 158.80351 | 11303 ft | 235 kts | 39° |
| 2026-04-28 12:08 | 53.19604 | 158.82018 | 11761 ft | 236 kts | 38° |
| 2026-04-28 12:08 | 53.20902 | 158.83771 | 12028 ft | 246 kts | 38° |
| 2026-04-28 12:08 | 53.22256 | 158.85646 | 12216 ft | 258 kts | 38° |
| 2026-04-28 12:09 | 53.23637 | 158.87578 | 12486 ft | 265 kts | 38° |
| 2026-04-28 12:09 | 53.25056 | 158.89571 | 12782 ft | 270 kts | 38° |
| 2026-04-28 12:09 | 53.26491 | 158.91599 | 13098 ft | 273 kts | 38° |
| 2026-04-28 12:09 | 53.27953 | 158.93671 | 13426 ft | 276 kts | 38° |
| 2026-04-28 12:10 | 53.29417 | 158.95754 | 13742 ft | 279 kts | 38° |
| 2026-04-28 12:10 | 53.30889 | 158.97864 | 14071 ft | 280 kts | 38° |
| 2026-04-28 12:10 | 53.32358 | 158.99983 | 14394 ft | 282 kts | 38° |
| 2026-04-28 12:10 | 53.33843 | 159.02138 | 14728 ft | 284 kts | 38° |
| 2026-04-28 12:11 | 53.35320 | 159.04292 | 15040 ft | 285 kts | 38° |
| 2026-04-28 12:11 | 53.36820 | 159.06493 | 15373 ft | 286 kts | 38° |
| 2026-04-28 12:11 | 53.38307 | 159.08691 | 15767 ft | 284 kts | 38° |
| 2026-04-28 12:11 | 53.39790 | 159.10883 | 16142 ft | 284 kts | 36° |
| 2026-04-28 12:12 | 53.41271 | 159.12993 | 16499 ft | 284 kts | 36° |
| 2026-04-28 12:12 | 53.42772 | 159.15153 | 16837 ft | 285 kts | 37° |
| 2026-04-28 12:12 | 53.44266 | 159.17325 | 17182 ft | 285 kts | 37° |
| 2026-04-28 12:12 | 53.45762 | 159.19513 | 17516 ft | 286 kts | 37° |
| 2026-04-28 12:13 | 53.47264 | 159.21716 | 17832 ft | 288 kts | 36° |
| 2026-04-28 12:13 | 53.48770 | 159.23932 | 18097 ft | 292 kts | 37° |
| 2026-04-28 12:13 | 53.50304 | 159.26195 | 18363 ft | 295 kts | 37° |
| 2026-04-28 12:13 | 53.51832 | 159.28450 | 18623 ft | 297 kts | 36° |
| 2026-04-28 12:14 | 53.53391 | 159.30757 | 18887 ft | 299 kts | 36° |
| 2026-04-28 12:14 | 53.54953 | 159.33073 | 19176 ft | 301 kts | 36° |
| 2026-04-28 12:14 | 53.56520 | 159.35408 | 19452 ft | 303 kts | 36° |
| 2026-04-28 12:14 | 53.58091 | 159.37759 | 19742 ft | 304 kts | 36° |
| 2026-04-28 12:15 | 53.59661 | 159.40118 | 20013 ft | 305 kts | 36° |
| 2026-04-28 12:15 | 53.61237 | 159.42490 | 20299 ft | 306 kts | 36° |
| 2026-04-28 12:15 | 53.62835 | 159.44893 | 20577 ft | 307 kts | 36° |
| 2026-04-28 12:15 | 53.64413 | 159.47267 | 20862 ft | 308 kts | 36° |
| 2026-04-28 12:16 | 53.66009 | 159.49674 | 21139 ft | 309 kts | 36° |
| 2026-04-28 12:16 | 53.67615 | 159.52101 | 21419 ft | 309 kts | 36° |
| 2026-04-28 12:16 | 53.69208 | 159.54518 | 21696 ft | 310 kts | 36° |
| 2026-04-28 12:16 | 53.70803 | 159.56952 | 21953 ft | 311 kts | 36° |
| 2026-04-28 12:17 | 53.72414 | 159.59412 | 22205 ft | 312 kts | 36° |
| 2026-04-28 12:17 | 53.74031 | 159.61874 | 22416 ft | 315 kts | 36° |
| 2026-04-28 12:17 | 53.75679 | 159.64264 | 22591 ft | 319 kts | 35° |
| 2026-04-28 12:17 | 53.77400 | 159.66765 | 22681 ft | 325 kts | 36° |
| 2026-04-28 12:18 | 53.79115 | 159.69246 | 22783 ft | 329 kts | 36° |
| 2026-04-28 12:18 | 53.80872 | 159.71758 | 22812 ft | 336 kts | 36° |
| 2026-04-28 12:18 | 53.82681 | 159.74348 | 22839 ft | 343 kts | 36° |
| 2026-04-28 12:18 | 53.84504 | 159.76964 | 22865 ft | 347 kts | 36° |
| 2026-04-28 12:19 | 53.86346 | 159.79614 | 22924 ft | 351 kts | 36° |
| 2026-04-28 12:19 | 53.88226 | 159.82315 | 22938 ft | 356 kts | 35° |
| 2026-04-28 12:19 | 53.90120 | 159.85042 | 22931 ft | 360 kts | 36° |
| 2026-04-28 12:19 | 53.92034 | 159.87730 | 22940 ft | 362 kts | 33° |
| 2026-04-28 12:20 | 53.94030 | 159.90363 | 22940 ft | 366 kts | 33° |
| 2026-04-28 12:20 | 53.96030 | 159.93018 | 22949 ft | 365 kts | 33° |
| 2026-04-28 12:20 | 53.97998 | 159.95656 | 22968 ft | 359 kts | 33° |
| 2026-04-28 12:20 | 53.99935 | 159.98267 | 22970 ft | 355 kts | 33° |
| 2026-04-28 12:21 | 54.01849 | 160.00864 | 22962 ft | 351 kts | 33° |
| 2026-04-28 12:21 | 54.03735 | 160.03429 | 22955 ft | 348 kts | 33° |
| 2026-04-28 12:21 | 54.05610 | 160.05986 | 22955 ft | 345 kts | 33° |
| 2026-04-28 12:21 | 54.07493 | 160.08560 | 22953 ft | 343 kts | 33° |
| 2026-04-28 12:22 | 54.09330 | 160.11014 | 22951 ft | 340 kts | 32° |
| 2026-04-28 12:22 | 54.11197 | 160.13464 | 22950 ft | 338 kts | 32° |
| 2026-04-28 12:22 | 54.13061 | 160.15941 | 22961 ft | 337 kts | 32° |
| 2026-04-28 12:22 | 54.14824 | 160.18292 | 22967 ft | 340 kts | 32° |
| 2026-04-28 12:23 | 54.16727 | 160.20830 | 22971 ft | 343 kts | 32° |
| 2026-04-28 12:23 | 54.18607 | 160.23335 | 22976 ft | 346 kts | 32° |
| 2026-04-28 12:23 | 54.20454 | 160.25794 | 22992 ft | 349 kts | 32° |
| 2026-04-28 12:23 | 54.22380 | 160.28351 | 22992 ft | 351 kts | 32° |
| 2026-04-28 12:24 | 54.24313 | 160.30917 | 23008 ft | 353 kts | 32° |
| 2026-04-28 12:24 | 54.26227 | 160.33464 | 22996 ft | 355 kts | 32° |
| 2026-04-28 12:24 | 54.28178 | 160.36064 | 22984 ft | 357 kts | 32° |
| 2026-04-28 12:24 | 54.30144 | 160.38687 | 22965 ft | 358 kts | 32° |
| 2026-04-28 12:25 | 54.32087 | 160.41283 | 22970 ft | 359 kts | 32° |
| 2026-04-28 12:25 | 54.34071 | 160.43932 | 22969 ft | 360 kts | 32° |
| 2026-04-28 12:25 | 54.36024 | 160.46538 | 22992 ft | 360 kts | 32° |
| 2026-04-28 12:25 | 54.37988 | 160.49165 | 22992 ft | 360 kts | 32° |
| 2026-04-28 12:26 | 54.39976 | 160.51825 | 23000 ft | 361 kts | 32° |
| 2026-04-28 12:26 | 54.41941 | 160.54460 | 23024 ft | 361 kts | 32° |
| 2026-04-28 12:26 | 54.43907 | 160.57097 | 23003 ft | 362 kts | 32° |
| 2026-04-28 12:26 | 54.45900 | 160.59772 | 23006 ft | 361 kts | 32° |
| 2026-04-28 12:27 | 54.47861 | 160.62410 | 23010 ft | 358 kts | 32° |
| 2026-04-28 12:27 | 54.49808 | 160.65041 | 23011 ft | 356 kts | 33° |
| 2026-04-28 12:27 | 54.51741 | 160.67660 | 23001 ft | 353 kts | 33° |
| 2026-04-28 12:27 | 54.53641 | 160.70247 | 22980 ft | 352 kts | 33° |
| 2026-04-28 12:28 | 54.55551 | 160.72852 | 22994 ft | 350 kts | 33° |
| 2026-04-28 12:28 | 54.57450 | 160.75447 | 23024 ft | 348 kts | 33° |
| 2026-04-28 12:28 | 54.59352 | 160.78052 | 23016 ft | 347 kts | 33° |
| 2026-04-28 12:28 | 54.61226 | 160.80618 | 22985 ft | 348 kts | 32° |
| 2026-04-28 12:29 | 54.64997 | 160.85791 | 22992 ft | 346 kts | 32° |
| 2026-04-28 12:29 | 54.66876 | 160.88379 | 22984 ft | 346 kts | 32° |
| 2026-04-28 12:29 | 54.68740 | 160.90948 | 22974 ft | 346 kts | 32° |
| 2026-04-28 12:30 | 54.70624 | 160.93553 | 22940 ft | 346 kts | 32° |
| 2026-04-28 12:30 | 54.72505 | 160.96152 | 22920 ft | 346 kts | 32° |
| 2026-04-28 12:30 | 54.74364 | 160.98717 | 22906 ft | 346 kts | 32° |
| 2026-04-28 12:30 | 54.76251 | 161.01320 | 22877 ft | 346 kts | 32° |
| 2026-04-28 12:31 | 54.78138 | 161.03928 | 22893 ft | 345 kts | 32° |
| 2026-04-28 12:31 | 54.79995 | 161.06502 | 22912 ft | 343 kts | 32° |
| 2026-04-28 12:31 | 54.81852 | 161.09079 | 22919 ft | 343 kts | 32° |
| 2026-04-28 12:31 | 54.83688 | 161.11630 | 22925 ft | 342 kts | 32° |
| 2026-04-28 12:32 | 54.85549 | 161.14217 | 22928 ft | 342 kts | 32° |
| 2026-04-28 12:32 | 54.87403 | 161.16791 | 22930 ft | 342 kts | 32° |
| 2026-04-28 12:32 | 54.89262 | 161.19374 | 22927 ft | 342 kts | 32° |
| 2026-04-28 12:32 | 54.91116 | 161.21953 | 22902 ft | 342 kts | 32° |
| 2026-04-28 12:33 | 54.92974 | 161.24536 | 22899 ft | 343 kts | 32° |
| 2026-04-28 12:33 | 54.94825 | 161.27115 | 22918 ft | 342 kts | 32° |
| 2026-04-28 12:33 | 54.96672 | 161.29697 | 22909 ft | 342 kts | 32° |
| 2026-04-28 12:33 | 54.98517 | 161.32280 | 22917 ft | 342 kts | 32° |
| 2026-04-28 12:34 | 55.00357 | 161.34871 | 22916 ft | 342 kts | 32° |
| 2026-04-28 12:34 | 55.02198 | 161.37471 | 22917 ft | 342 kts | 32° |
| 2026-04-28 12:34 | 55.04036 | 161.40077 | 22924 ft | 342 kts | 32° |
| 2026-04-28 12:34 | 55.05876 | 161.42691 | 22967 ft | 341 kts | 32° |
| 2026-04-28 12:35 | 55.07711 | 161.45300 | 22982 ft | 341 kts | 32° |
| 2026-04-28 12:35 | 55.09541 | 161.47902 | 22977 ft | 341 kts | 32° |
| 2026-04-28 12:35 | 55.11383 | 161.50525 | 22984 ft | 341 kts | 32° |
| 2026-04-28 12:35 | 55.13221 | 161.53145 | 22999 ft | 341 kts | 32° |
| 2026-04-28 12:36 | 55.15052 | 161.55760 | 23004 ft | 341 kts | 32° |
| 2026-04-28 12:36 | 55.16696 | 161.58090 | 23007 ft | 340 kts | 31° |
| 2026-04-28 12:36 | 55.18630 | 161.60353 | 23055 ft | 332 kts | 21° |
| 2026-04-28 12:36 | 55.20652 | 161.62299 | 22937 ft | 334 kts | 21° |
| 2026-04-28 12:37 | 55.22528 | 161.64130 | 22802 ft | 331 kts | 22° |
| 2026-04-28 12:37 | 55.24555 | 161.66133 | 22629 ft | 328 kts | 22° |
| 2026-04-28 12:37 | 55.26504 | 161.68072 | 22442 ft | 325 kts | 22° |
| 2026-04-28 12:37 | 55.28467 | 161.70033 | 22264 ft | 322 kts | 22° |
| 2026-04-28 12:38 | 55.30409 | 161.71970 | 22066 ft | 320 kts | 22° |
| 2026-04-28 12:38 | 55.32306 | 161.73860 | 21878 ft | 318 kts | 22° |
| 2026-04-28 12:38 | 55.34221 | 161.75766 | 21710 ft | 316 kts | 22° |
| 2026-04-28 12:38 | 55.36130 | 161.77657 | 21521 ft | 314 kts | 22° |
| 2026-04-28 12:39 | 55.38042 | 161.79550 | 21330 ft | 313 kts | 22° |
| 2026-04-28 12:39 | 55.39922 | 161.81409 | 21050 ft | 312 kts | 22° |
| 2026-04-28 12:39 | 55.41806 | 161.83273 | 20752 ft | 308 kts | 22° |
| 2026-04-28 12:39 | 55.43650 | 161.85092 | 20451 ft | 304 kts | 22° |
| 2026-04-28 12:40 | 55.45482 | 161.86897 | 20149 ft | 301 kts | 22° |
| 2026-04-28 12:40 | 55.47283 | 161.88669 | 19847 ft | 298 kts | 22° |
| 2026-04-28 12:40 | 55.49099 | 161.90451 | 19537 ft | 296 kts | 22° |
| 2026-04-28 12:40 | 55.50872 | 161.92183 | 19237 ft | 294 kts | 22° |
| 2026-04-28 12:41 | 55.52639 | 161.93903 | 18935 ft | 291 kts | 22° |
| 2026-04-28 12:41 | 55.54429 | 161.95631 | 18628 ft | 289 kts | 22° |
| 2026-04-28 12:41 | 55.56175 | 161.97308 | 18318 ft | 287 kts | 22° |
| 2026-04-28 12:41 | 55.57902 | 161.98959 | 18041 ft | 284 kts | 22° |
| 2026-04-28 12:42 | 55.59645 | 162.00613 | 17722 ft | 282 kts | 22° |
| 2026-04-28 12:42 | 55.61369 | 162.02240 | 17432 ft | 279 kts | 22° |
| 2026-04-28 12:42 | 55.63060 | 162.03824 | 17118 ft | 277 kts | 22° |
| 2026-04-28 12:42 | 55.64773 | 162.05418 | 16841 ft | 275 kts | 22° |
| 2026-04-28 12:43 | 55.66440 | 162.06957 | 16541 ft | 273 kts | 22° |
| 2026-04-28 12:43 | 55.68127 | 162.08495 | 16220 ft | 271 kts | 22° |
| 2026-04-28 12:43 | 55.69795 | 162.09998 | 15947 ft | 269 kts | 22° |
| 2026-04-28 12:43 | 55.71454 | 162.11476 | 15658 ft | 266 kts | 22° |
| 2026-04-28 12:44 | 55.73105 | 162.12926 | 15332 ft | 264 kts | 22° |
| 2026-04-28 12:44 | 55.74732 | 162.14340 | 15051 ft | 262 kts | 22° |
| 2026-04-28 12:44 | 55.76361 | 162.15750 | 14753 ft | 261 kts | 22° |
| 2026-04-28 12:44 | 55.77986 | 162.17151 | 14453 ft | 259 kts | 22° |
| 2026-04-28 12:45 | 55.79603 | 162.18533 | 14166 ft | 258 kts | 22° |
| 2026-04-28 12:45 | 55.81214 | 162.19902 | 13857 ft | 256 kts | 22° |
| 2026-04-28 12:45 | 55.82800 | 162.21242 | 13576 ft | 254 kts | 22° |
| 2026-04-28 12:45 | 55.84388 | 162.22572 | 13288 ft | 253 kts | 22° |
| 2026-04-28 12:46 | 55.85973 | 162.23894 | 12992 ft | 251 kts | 22° |
| 2026-04-28 12:46 | 55.87552 | 162.25198 | 12698 ft | 250 kts | 22° |
| 2026-04-28 12:46 | 55.89122 | 162.26486 | 12387 ft | 249 kts | 22° |
| 2026-04-28 12:46 | 55.90694 | 162.27771 | 12088 ft | 248 kts | 22° |
| 2026-04-28 12:47 | 55.92262 | 162.29044 | 11768 ft | 247 kts | 22° |
| 2026-04-28 12:47 | 55.93794 | 162.30283 | 11481 ft | 243 kts | 22° |
| 2026-04-28 12:47 | 55.95306 | 162.31598 | 11210 ft | 240 kts | 25° |
| 2026-04-28 12:47 | 55.96779 | 162.32947 | 10899 ft | 236 kts | 25° |
| 2026-04-28 12:48 | 55.98233 | 162.34255 | 10589 ft | 232 kts | 25° |
| 2026-04-28 12:48 | 55.99649 | 162.35521 | 10262 ft | 229 kts | 25° |
| 2026-04-28 12:48 | 56.01052 | 162.36873 | 9964 ft | 226 kts | 29° |
| 2026-04-28 12:48 | 56.02388 | 162.38330 | 9666 ft | 224 kts | 29° |
| 2026-04-28 12:49 | 56.03701 | 162.39752 | 9350 ft | 223 kts | 29° |
| 2026-04-28 12:49 | 56.05034 | 162.41183 | 9017 ft | 224 kts | 29° |
| 2026-04-28 12:49 | 56.06469 | 162.42128 | 8738 ft | 218 kts | 2° |
| 2026-04-28 12:49 | 56.07912 | 162.41547 | 8493 ft | 216 kts | 328° |
| 2026-04-28 12:50 | 56.08812 | 162.39462 | 8196 ft | 219 kts | 286° |
| 2026-04-28 12:50 | 56.08689 | 162.36780 | 7865 ft | 225 kts | 244° |
| 2026-04-28 12:50 | 56.07584 | 162.34889 | 7522 ft | 222 kts | 203° |
| 2026-04-28 12:50 | 56.06094 | 162.34804 | 7139 ft | 216 kts | 159° |
| 2026-04-28 12:51 | 56.05008 | 162.36487 | 6731 ft | 210 kts | 115° |
| 2026-04-28 12:51 | 56.04863 | 162.38971 | 6345 ft | 200 kts | 73° |
| 2026-04-28 12:51 | 56.05277 | 162.41267 | 5958 ft | 194 kts | 59° |
| 2026-04-28 12:51 | 56.06129 | 162.43024 | 5594 ft | 186 kts | 34° |
| 2026-04-28 12:52 | 56.07100 | 162.44496 | 5214 ft | 181 kts | 39° |
| 2026-04-28 12:52 | 56.08045 | 162.45960 | 4926 ft | 177 kts | 39° |
| 2026-04-28 12:52 | 56.08964 | 162.47372 | 4591 ft | 176 kts | 39° |
| 2026-04-28 12:52 | 56.09877 | 162.48793 | 4259 ft | 171 kts | 39° |
| 2026-04-28 12:53 | 56.10762 | 162.50169 | 3901 ft | 167 kts | 39° |
| 2026-04-28 12:53 | 56.11620 | 162.51502 | 3596 ft | 157 kts | 39° |
| 2026-04-28 12:53 | 56.12338 | 162.52618 | 3376 ft | 144 kts | 39° |
| 2026-04-28 12:53 | 56.13061 | 162.53740 | 3133 ft | 137 kts | 39° |
| 2026-04-28 12:54 | 56.13828 | 162.54924 | 2912 ft | 151 kts | 39° |
| 2026-04-28 12:54 | 56.14617 | 162.56133 | 2740 ft | 147 kts | 39° |
| 2026-04-28 12:54 | 56.15383 | 162.57295 | 2528 ft | 143 kts | 39° |
| 2026-04-28 12:54 | 56.16138 | 162.58453 | 2307 ft | 143 kts | 39° |
| 2026-04-28 12:55 | 56.16859 | 162.59627 | 2102 ft | 142 kts | 44° |
| 2026-04-28 12:55 | 56.17437 | 162.61072 | 1849 ft | 145 kts | 58° |
| 2026-04-28 12:55 | 56.17798 | 162.62740 | 1685 ft | 134 kts | 69° |
| 2026-04-28 12:55 | 56.18042 | 162.64143 | 1574 ft | 106 kts | 69° |
| 2026-04-28 12:56 | 56.18322 | 162.65387 | 1407 ft | 114 kts | 59° |
| 2026-04-28 12:56 | 56.18864 | 162.66551 | 1387 ft | 124 kts | 41° |
| 2026-04-28 12:56 | 56.19525 | 162.67452 | 1362 ft | 116 kts | 34° |
| 2026-04-28 12:56 | 56.20216 | 162.68175 | 1204 ft | 115 kts | 24° |
| 2026-04-28 12:57 | 56.20979 | 162.68543 | 974 ft | 111 kts | 9° |
| 2026-04-28 12:57 | 56.21726 | 162.68668 | 622 ft | 107 kts | 4° |
| 2026-04-28 12:57 | 56.22438 | 162.68780 | 313 ft | 99 kts | 4° |
| 2026-04-28 12:57 | 56.23099 | 162.68884 | 102 ft | 90 kts | 5° |
| 2026-04-28 12:58 | 56.23695 | 162.68976 | 53 ft | 81 kts | 5° |
| 2026-04-28 12:58 | 56.24138 | 162.69043 | 47 ft | 39 kts | 5° |
| 2026-04-28 12:58 | 56.24341 | 162.69080 | 42 ft | 11 kts | 5° |
| 2026-04-28 12:58 | 56.24387 | 162.69084 | 42 ft | 2 kts | 265° |
| 2026-04-28 12:59 | 56.24375 | 162.69076 | 42 ft | 3 kts | 181° |
| 2026-04-28 12:59 | 56.24302 | 162.69070 | 43 ft | 16 kts | 186° |
| 2026-04-28 12:59 | 56.24152 | 162.69046 | 47 ft | 23 kts | 186° |
| 2026-04-28 12:59 | 56.24003 | 162.69019 | 50 ft | 17 kts | 184° |
| 2026-04-28 13:00 | 56.23900 | 162.69009 | 51 ft | 11 kts | 169° |
| 2026-04-28 13:00 | 56.23876 | 162.69102 | 52 ft | 6 kts | 93° |
| 2026-04-28 13:00 | 56.23874 | 162.69153 | 53 ft | 1 kts | 94° |
| 2026-04-28 13:00 | 56.23874 | 162.69157 | 53 ft | 0 kts | 94° |
| 2026-04-28 13:01 | 56.23873 | 162.69186 | 54 ft | 8 kts | 94° |
| 2026-04-28 13:01 | 56.23869 | 162.69299 | 56 ft | 8 kts | 94° |
| 2026-04-28 13:01 | 56.23850 | 162.69336 | 57 ft | 2 kts | 182° |
| 2026-04-28 13:02 | 56.23842 | 162.69334 | 57 ft | 0 kts | 187° |
| 2026-04-28 13:02 | 56.23809 | 162.69338 | 58 ft | 3 kts | 129° |
| 2026-04-28 13:02 | 56.23809 | 162.69362 | 59 ft | 0 kts | 93° |
| 2026-04-28 13:05 | 56.23809 | 162.69360 | 59 ft | 0 kts | 93° |